DAL69 CYHZ-FACT
Flight info
| Callsign | DAL69 |
|---|---|
| Flight time | N/A |
| Altitude | 39000 |
| Route | YHZ DCT CARAC DCT JEBBY DCT 39N050W 32N040W 23N030W/N0497F390 DCT GAMBA UR976 CVS DCT 04N010W DCT TIVAK DCT ARLEM DCT 09S000E 18S010E DCT NIBEK DCT DULGO DCT OKTEL DCT EVUKI |
| Aircraft | B78X/H-SDE1E2E3FGHIJ2J3J4J5M1RWXY/LB1D1 |
Departure
| Time | N/A |
|---|---|
| Airport | Halifax / Stanfield International Airport (CYHZ) |
Arrival
| Time | 2026-05-03 23:44 |
|---|---|
| Airport | Cape Town International Airport (FACT) |
| Time | Latitude | Longitude | Altitude | Speed | Heading |
|---|---|---|---|---|---|
| 2026-05-03 20:15 | -11.25345 | 2.39922 | 39076 ft | 521 kts | 134° |
| 2026-05-03 20:15 | -11.30329 | 2.45291 | 39086 ft | 521 kts | 134° |
| 2026-05-03 20:16 | -11.35312 | 2.50662 | 39078 ft | 521 kts | 134° |
| 2026-05-03 20:16 | -11.40300 | 2.56039 | 39081 ft | 521 kts | 134° |
| 2026-05-03 20:17 | -11.45189 | 2.61314 | 39090 ft | 522 kts | 134° |
| 2026-05-03 20:17 | -11.50167 | 2.66688 | 39077 ft | 521 kts | 134° |
| 2026-05-03 20:18 | -11.55153 | 2.72073 | 39089 ft | 521 kts | 134° |
| 2026-05-03 20:18 | -11.60129 | 2.77450 | 39087 ft | 521 kts | 134° |
| 2026-05-03 20:19 | -11.65112 | 2.82838 | 39082 ft | 521 kts | 134° |
| 2026-05-03 20:19 | -11.70093 | 2.88227 | 39095 ft | 521 kts | 134° |
| 2026-05-03 20:20 | -11.75034 | 2.93576 | 39084 ft | 521 kts | 134° |
| 2026-05-03 20:20 | -11.80016 | 2.98971 | 39091 ft | 521 kts | 134° |
| 2026-05-03 20:21 | -11.84991 | 3.04363 | 39095 ft | 522 kts | 134° |
| 2026-05-03 20:21 | -11.89972 | 3.09764 | 39085 ft | 521 kts | 134° |
| 2026-05-03 20:22 | -11.94935 | 3.15149 | 39099 ft | 521 kts | 134° |
| 2026-05-03 20:22 | -11.99911 | 3.20551 | 39093 ft | 521 kts | 134° |
| 2026-05-03 20:23 | -12.04056 | 3.25052 | 39092 ft | 525 kts | 134° |
| 2026-05-03 20:23 | -12.09870 | 3.31371 | 39100 ft | 524 kts | 134° |
| 2026-05-03 20:24 | -12.14040 | 3.35905 | 39090 ft | 524 kts | 134° |
| 2026-05-03 20:24 | -12.19019 | 3.41322 | 39102 ft | 524 kts | 134° |
| 2026-05-03 20:25 | -12.23999 | 3.46744 | 39099 ft | 523 kts | 134° |
| 2026-05-03 20:25 | -12.28986 | 3.52176 | 39095 ft | 523 kts | 134° |
| 2026-05-03 20:26 | -12.33958 | 3.57595 | 39108 ft | 523 kts | 133° |
| 2026-05-03 20:26 | -12.38943 | 3.63031 | 39097 ft | 523 kts | 133° |
| 2026-05-03 20:27 | -12.43941 | 3.68485 | 39104 ft | 523 kts | 133° |
| 2026-05-03 20:27 | -12.48913 | 3.73914 | 39108 ft | 523 kts | 133° |
| 2026-05-03 20:28 | -12.53901 | 3.79363 | 39100 ft | 524 kts | 134° |
| 2026-05-03 20:28 | -12.58858 | 3.84783 | 39112 ft | 524 kts | 133° |
| 2026-05-03 20:29 | -12.63841 | 3.90234 | 39105 ft | 524 kts | 133° |
| 2026-05-03 20:29 | -12.68829 | 3.95693 | 39108 ft | 525 kts | 133° |
| 2026-05-03 20:30 | -12.73823 | 4.01163 | 39115 ft | 525 kts | 134° |
| 2026-05-03 20:30 | -12.78794 | 4.06611 | 39105 ft | 525 kts | 134° |
| 2026-05-03 20:31 | -12.83792 | 4.12092 | 39115 ft | 526 kts | 134° |
| 2026-05-03 20:31 | -12.88795 | 4.17580 | 39115 ft | 526 kts | 134° |
| 2026-05-03 20:32 | -12.93765 | 4.23037 | 39110 ft | 526 kts | 134° |
| 2026-05-03 20:32 | -12.98763 | 4.28528 | 39121 ft | 527 kts | 134° |
| 2026-05-03 20:33 | -13.03764 | 4.34026 | 39113 ft | 527 kts | 134° |
| 2026-05-03 20:33 | -13.08776 | 4.39539 | 39117 ft | 528 kts | 134° |
| 2026-05-03 20:34 | -13.13781 | 4.45049 | 39124 ft | 528 kts | 134° |
| 2026-05-03 20:34 | -13.18791 | 4.50567 | 39113 ft | 528 kts | 134° |
| 2026-05-03 20:35 | -13.23814 | 4.56102 | 39126 ft | 529 kts | 134° |
| 2026-05-03 20:35 | -13.28800 | 4.61602 | 39123 ft | 529 kts | 134° |
| 2026-05-03 20:36 | -13.33817 | 4.67138 | 39120 ft | 529 kts | 134° |
| 2026-05-03 20:36 | -13.38837 | 4.72682 | 39132 ft | 529 kts | 134° |
| 2026-05-03 20:37 | -13.43855 | 4.78227 | 39118 ft | 529 kts | 134° |
| 2026-05-03 20:37 | -13.48862 | 4.83763 | 39131 ft | 529 kts | 134° |
| 2026-05-03 20:38 | -13.53841 | 4.89273 | 39132 ft | 529 kts | 134° |
| 2026-05-03 20:38 | -13.58854 | 4.94824 | 39125 ft | 529 kts | 134° |
| 2026-05-03 20:39 | -13.63859 | 5.00368 | 39139 ft | 529 kts | 134° |
| 2026-05-03 20:39 | -13.68866 | 5.05920 | 39130 ft | 529 kts | 134° |
| 2026-05-03 20:40 | -13.73836 | 5.11433 | 39134 ft | 529 kts | 134° |
| 2026-05-03 20:40 | -13.78844 | 5.16994 | 39142 ft | 529 kts | 134° |
| 2026-05-03 20:41 | -13.83849 | 5.22554 | 39129 ft | 529 kts | 134° |
| 2026-05-03 20:41 | -13.88850 | 5.28113 | 39144 ft | 529 kts | 134° |
| 2026-05-03 20:42 | -13.93854 | 5.33681 | 39138 ft | 530 kts | 134° |
| 2026-05-03 20:42 | -13.98855 | 5.39247 | 39139 ft | 530 kts | 134° |
| 2026-05-03 20:43 | -14.03873 | 5.44837 | 39152 ft | 532 kts | 134° |
| 2026-05-03 20:43 | -14.08881 | 5.50420 | 39138 ft | 531 kts | 134° |
| 2026-05-03 20:44 | -14.13863 | 5.55977 | 39149 ft | 531 kts | 134° |
| 2026-05-03 20:44 | -14.18876 | 5.61574 | 39150 ft | 531 kts | 134° |
| 2026-05-03 20:45 | -14.23887 | 5.67171 | 39143 ft | 531 kts | 134° |
| 2026-05-03 20:45 | -14.28898 | 5.72774 | 39157 ft | 531 kts | 134° |
| 2026-05-03 20:46 | -14.33905 | 5.78375 | 39149 ft | 531 kts | 134° |
| 2026-05-03 20:46 | -14.38909 | 5.83977 | 39152 ft | 531 kts | 134° |
| 2026-05-03 20:47 | -14.43911 | 5.89581 | 39160 ft | 531 kts | 134° |
| 2026-05-03 20:47 | -14.48924 | 5.95200 | 39150 ft | 531 kts | 134° |
| 2026-05-03 20:48 | -14.53887 | 6.00769 | 39161 ft | 531 kts | 134° |
| 2026-05-03 20:48 | -14.58889 | 6.06384 | 39162 ft | 531 kts | 134° |
| 2026-05-03 20:49 | -14.63891 | 6.12003 | 39155 ft | 531 kts | 133° |
| 2026-05-03 20:49 | -14.68899 | 6.17634 | 39169 ft | 532 kts | 133° |
| 2026-05-03 20:50 | -14.73906 | 6.23267 | 39160 ft | 532 kts | 133° |
| 2026-05-03 20:50 | -14.78914 | 6.28906 | 39166 ft | 532 kts | 133° |
| 2026-05-03 20:51 | -14.83887 | 6.34509 | 39174 ft | 533 kts | 133° |
| 2026-05-03 20:51 | -14.88900 | 6.40163 | 39161 ft | 533 kts | 133° |
| 2026-05-03 20:52 | -14.93906 | 6.45812 | 39175 ft | 533 kts | 133° |
| 2026-05-03 20:52 | -14.98910 | 6.51462 | 39173 ft | 534 kts | 133° |
| 2026-05-03 20:53 | -15.03931 | 6.57136 | 39170 ft | 533 kts | 133° |
| 2026-05-03 20:53 | -15.08931 | 6.62791 | 39200 ft | 533 kts | 133° |
| 2026-05-03 20:54 | -15.13945 | 6.68467 | 39238 ft | 534 kts | 133° |
| 2026-05-03 20:54 | -15.21456 | 6.76976 | 39255 ft | 534 kts | 133° |
| 2026-05-03 20:55 | -15.26443 | 6.82631 | 39244 ft | 534 kts | 133° |
| 2026-05-03 20:55 | -15.31452 | 6.88315 | 39257 ft | 534 kts | 133° |
| 2026-05-03 20:56 | -15.36472 | 6.94016 | 39251 ft | 534 kts | 133° |
| 2026-05-03 20:56 | -15.41485 | 6.99714 | 39251 ft | 534 kts | 133° |
| 2026-05-03 20:57 | -15.46461 | 7.05374 | 39261 ft | 534 kts | 133° |
| 2026-05-03 20:57 | -15.51468 | 7.11074 | 39248 ft | 534 kts | 133° |
| 2026-05-03 20:58 | -15.56489 | 7.16794 | 39259 ft | 535 kts | 133° |
| 2026-05-03 20:58 | -15.61500 | 7.22507 | 39258 ft | 535 kts | 133° |
| 2026-05-03 20:59 | -15.66504 | 7.28217 | 39252 ft | 535 kts | 133° |
| 2026-05-03 20:59 | -15.71515 | 7.33938 | 39265 ft | 535 kts | 133° |
| 2026-05-03 21:00 | -15.74864 | 7.37765 | 39259 ft | 536 kts | 133° |
| 2026-05-03 21:00 | -15.81542 | 7.45402 | 39260 ft | 536 kts | 133° |
| 2026-05-03 21:01 | -15.86532 | 7.51113 | 39265 ft | 537 kts | 133° |
| 2026-05-03 21:01 | -15.91543 | 7.56853 | 39254 ft | 536 kts | 133° |
| 2026-05-03 21:02 | -15.96564 | 7.62609 | 39267 ft | 536 kts | 133° |
| 2026-05-03 21:02 | -16.01567 | 7.68350 | 39260 ft | 537 kts | 133° |
| 2026-05-03 21:03 | -16.06589 | 7.74118 | 39264 ft | 537 kts | 133° |
| 2026-05-03 21:03 | -16.11593 | 7.79868 | 39268 ft | 536 kts | 133° |
| 2026-05-03 21:04 | -16.16597 | 7.85623 | 39257 ft | 536 kts | 133° |
| 2026-05-03 21:04 | -16.21603 | 7.91386 | 39269 ft | 536 kts | 133° |
| 2026-05-03 21:05 | -16.26581 | 7.97121 | 39266 ft | 536 kts | 133° |
| 2026-05-03 21:05 | -16.31595 | 8.02901 | 39262 ft | 537 kts | 133° |
| 2026-05-03 21:06 | -16.36602 | 8.08680 | 39273 ft | 537 kts | 133° |
| 2026-05-03 21:06 | -16.41602 | 8.14454 | 39261 ft | 537 kts | 133° |
| 2026-05-03 21:07 | -16.46629 | 8.20265 | 39270 ft | 538 kts | 133° |
| 2026-05-03 21:07 | -16.51654 | 8.26079 | 39270 ft | 538 kts | 133° |
| 2026-05-03 21:08 | -16.56627 | 8.31837 | 39263 ft | 539 kts | 133° |
| 2026-05-03 21:08 | -16.61649 | 8.37654 | 39275 ft | 539 kts | 133° |
| 2026-05-03 21:09 | -16.66675 | 8.43483 | 39265 ft | 539 kts | 133° |
| 2026-05-03 21:09 | -16.71698 | 8.49314 | 39270 ft | 540 kts | 133° |
| 2026-05-03 21:10 | -16.76715 | 8.55142 | 39274 ft | 540 kts | 133° |
| 2026-05-03 21:10 | -16.80890 | 8.59996 | 39263 ft | 540 kts | 133° |
| 2026-05-03 21:11 | -16.86742 | 8.66806 | 39277 ft | 541 kts | 133° |
| 2026-05-03 21:11 | -16.90918 | 8.71669 | 39271 ft | 541 kts | 133° |
| 2026-05-03 21:12 | -16.95966 | 8.77553 | 39266 ft | 541 kts | 133° |
| 2026-05-03 21:12 | -17.01005 | 8.83431 | 39275 ft | 542 kts | 133° |
| 2026-05-03 21:13 | -17.06013 | 8.89279 | 39264 ft | 542 kts | 133° |
| 2026-05-03 21:13 | -17.11034 | 8.95146 | 39271 ft | 542 kts | 133° |
| 2026-05-03 21:14 | -17.16055 | 9.01019 | 39273 ft | 542 kts | 133° |
| 2026-05-03 21:14 | -17.21102 | 9.06927 | 39249 ft | 543 kts | 133° |
| 2026-05-03 21:15 | -17.26102 | 9.12786 | 39232 ft | 543 kts | 133° |
| 2026-05-03 21:15 | -17.31130 | 9.18682 | 39232 ft | 543 kts | 133° |
| 2026-05-03 21:16 | -17.36160 | 9.24586 | 39240 ft | 543 kts | 133° |
| 2026-05-03 21:16 | -17.41195 | 9.30501 | 39227 ft | 544 kts | 133° |
| 2026-05-03 21:17 | -17.46228 | 9.36420 | 39237 ft | 544 kts | 133° |
| 2026-05-03 21:17 | -17.51276 | 9.42361 | 39234 ft | 545 kts | 133° |
| 2026-05-03 21:18 | -17.56288 | 9.48264 | 39227 ft | 545 kts | 133° |
| 2026-05-03 21:18 | -17.61318 | 9.54196 | 39240 ft | 545 kts | 133° |
| 2026-05-03 21:19 | -17.66364 | 9.60151 | 39228 ft | 546 kts | 133° |
| 2026-05-03 21:19 | -17.71414 | 9.66116 | 39231 ft | 546 kts | 133° |
| 2026-05-03 21:20 | -17.76455 | 9.72075 | 39236 ft | 546 kts | 133° |
| 2026-05-03 21:20 | -17.81494 | 9.78039 | 39223 ft | 547 kts | 133° |
| 2026-05-03 21:21 | -17.86551 | 9.84029 | 39235 ft | 547 kts | 133° |
| 2026-05-03 21:21 | -17.91557 | 9.89964 | 39228 ft | 547 kts | 133° |
| 2026-05-03 21:22 | -17.96601 | 9.95949 | 39225 ft | 547 kts | 133° |
| 2026-05-03 21:22 | -18.02024 | 10.01493 | 39205 ft | 542 kts | 146° |
| 2026-05-03 21:23 | -18.08502 | 10.05543 | 39295 ft | 541 kts | 154° |
| 2026-05-03 21:23 | -18.15096 | 10.09358 | 39265 ft | 540 kts | 153° |
| 2026-05-03 21:24 | -18.21570 | 10.13286 | 39252 ft | 541 kts | 152° |
| 2026-05-03 21:24 | -18.28080 | 10.17345 | 39262 ft | 542 kts | 152° |
| 2026-05-03 21:25 | -18.34532 | 10.21391 | 39257 ft | 542 kts | 152° |
| 2026-05-03 21:25 | -18.40998 | 10.25445 | 39250 ft | 542 kts | 152° |
| 2026-05-03 21:26 | -18.47481 | 10.29511 | 39261 ft | 542 kts | 152° |
| 2026-05-03 21:26 | -18.53966 | 10.33579 | 39248 ft | 542 kts | 152° |
| 2026-05-03 21:27 | -18.60450 | 10.37650 | 39250 ft | 543 kts | 152° |
| 2026-05-03 21:27 | -18.66956 | 10.41739 | 39254 ft | 543 kts | 152° |
| 2026-05-03 21:28 | -18.73456 | 10.45828 | 39242 ft | 544 kts | 152° |
| 2026-05-03 21:28 | -18.79961 | 10.49924 | 39252 ft | 544 kts | 152° |
| 2026-05-03 21:29 | -18.86464 | 10.54022 | 39244 ft | 545 kts | 152° |
| 2026-05-03 21:29 | -18.92970 | 10.58127 | 39240 ft | 545 kts | 152° |
| 2026-05-03 21:30 | -18.99450 | 10.62218 | 39260 ft | 546 kts | 152° |
| 2026-05-03 21:30 | -19.05969 | 10.66338 | 39257 ft | 546 kts | 152° |
| 2026-05-03 21:31 | -19.12492 | 10.70464 | 39249 ft | 547 kts | 152° |
| 2026-05-03 21:31 | -19.19031 | 10.74604 | 39257 ft | 547 kts | 152° |
| 2026-05-03 21:32 | -19.25557 | 10.78740 | 39243 ft | 547 kts | 152° |
| 2026-05-03 21:32 | -19.32094 | 10.82886 | 39247 ft | 547 kts | 152° |
| 2026-05-03 21:33 | -19.38624 | 10.87032 | 39247 ft | 546 kts | 152° |
| 2026-05-03 21:33 | -19.45114 | 10.91157 | 39237 ft | 548 kts | 152° |
| 2026-05-03 21:34 | -19.51665 | 10.95324 | 39245 ft | 548 kts | 152° |
| 2026-05-03 21:34 | -19.58214 | 10.99495 | 39212 ft | 549 kts | 152° |
| 2026-05-03 21:35 | -19.64761 | 11.03667 | 39173 ft | 548 kts | 152° |
| 2026-05-03 21:35 | -19.71303 | 11.07841 | 39136 ft | 549 kts | 152° |
| 2026-05-03 21:36 | -19.77816 | 11.12000 | 39114 ft | 549 kts | 152° |
| 2026-05-03 21:36 | -19.84406 | 11.16212 | 39102 ft | 549 kts | 152° |
| 2026-05-03 21:37 | -19.90915 | 11.20377 | 39112 ft | 549 kts | 152° |
| 2026-05-03 21:37 | -19.97477 | 11.24579 | 39110 ft | 550 kts | 152° |
| 2026-05-03 21:38 | -20.04042 | 11.28789 | 39104 ft | 553 kts | 152° |
| 2026-05-03 21:38 | -20.10627 | 11.33014 | 39116 ft | 553 kts | 152° |
| 2026-05-03 21:39 | -20.17211 | 11.37243 | 39104 ft | 553 kts | 152° |
| 2026-05-03 21:39 | -20.23790 | 11.41473 | 39115 ft | 553 kts | 152° |
| 2026-05-03 21:40 | -20.30388 | 11.45720 | 39113 ft | 553 kts | 152° |
| 2026-05-03 21:40 | -20.36926 | 11.49932 | 39107 ft | 553 kts | 152° |
| 2026-05-03 21:41 | -20.43501 | 11.54173 | 39120 ft | 553 kts | 152° |
| 2026-05-03 21:41 | -20.50089 | 11.58426 | 39109 ft | 553 kts | 152° |
| 2026-05-03 21:42 | -20.56681 | 11.62687 | 39116 ft | 553 kts | 152° |
| 2026-05-03 21:42 | -20.63259 | 11.66942 | 39118 ft | 554 kts | 152° |
| 2026-05-03 21:43 | -20.69806 | 11.71181 | 39107 ft | 554 kts | 152° |
| 2026-05-03 21:43 | -20.76388 | 11.75448 | 39123 ft | 554 kts | 152° |
| 2026-05-03 21:44 | -20.82995 | 11.79735 | 39114 ft | 554 kts | 152° |
| 2026-05-03 21:44 | -20.89578 | 11.84011 | 39116 ft | 554 kts | 152° |
| 2026-05-03 21:45 | -20.96184 | 11.88306 | 39126 ft | 555 kts | 152° |
| 2026-05-03 21:45 | -21.02759 | 11.92587 | 39111 ft | 556 kts | 152° |
| 2026-05-03 21:46 | -21.09357 | 11.96887 | 39120 ft | 555 kts | 153° |
| 2026-05-03 21:46 | -21.15960 | 12.01193 | 39124 ft | 556 kts | 152° |
| 2026-05-03 21:47 | -21.22571 | 12.05510 | 39112 ft | 556 kts | 153° |
| 2026-05-03 21:47 | -21.29139 | 12.09803 | 39127 ft | 556 kts | 153° |
| 2026-05-03 21:48 | -21.35752 | 12.14130 | 39118 ft | 557 kts | 153° |
| 2026-05-03 21:48 | -21.42376 | 12.18470 | 39121 ft | 557 kts | 153° |
| 2026-05-03 21:49 | -21.48996 | 12.22811 | 39130 ft | 558 kts | 153° |
| 2026-05-03 21:49 | -21.55625 | 12.27163 | 39117 ft | 558 kts | 153° |
| 2026-05-03 21:50 | -21.62244 | 12.31513 | 39129 ft | 558 kts | 153° |
| 2026-05-03 21:50 | -21.68826 | 12.35844 | 39126 ft | 558 kts | 153° |
| 2026-05-03 21:51 | -21.75497 | 12.40237 | 39122 ft | 559 kts | 153° |
| 2026-05-03 21:51 | -21.82078 | 12.44576 | 39134 ft | 559 kts | 153° |
| 2026-05-03 21:52 | -21.88714 | 12.48957 | 39122 ft | 559 kts | 153° |
| 2026-05-03 21:52 | -21.95332 | 12.53330 | 39129 ft | 558 kts | 152° |
| 2026-05-03 21:53 | -22.01957 | 12.57713 | 39133 ft | 559 kts | 153° |
| 2026-05-03 21:53 | -22.08592 | 12.62108 | 39123 ft | 559 kts | 153° |
| 2026-05-03 21:54 | -22.15171 | 12.66469 | 39136 ft | 559 kts | 153° |
| 2026-05-03 21:54 | -22.21795 | 12.70866 | 39129 ft | 559 kts | 153° |
| 2026-05-03 21:55 | -22.28415 | 12.75265 | 39129 ft | 558 kts | 153° |
| 2026-05-03 21:55 | -22.35029 | 12.79665 | 39139 ft | 558 kts | 153° |
| 2026-05-03 21:56 | -22.41630 | 12.84061 | 39127 ft | 558 kts | 153° |
| 2026-05-03 21:56 | -22.48243 | 12.88470 | 39136 ft | 558 kts | 153° |
| 2026-05-03 21:57 | -22.54849 | 12.92879 | 39136 ft | 558 kts | 153° |
| 2026-05-03 21:57 | -22.60329 | 12.96542 | 39127 ft | 558 kts | 153° |
| 2026-05-03 21:58 | -22.66937 | 13.00962 | 39141 ft | 557 kts | 153° |
| 2026-05-03 21:58 | -22.73548 | 13.05390 | 39158 ft | 557 kts | 153° |
| 2026-05-03 21:59 | -22.80135 | 13.09805 | 39175 ft | 557 kts | 153° |
| 2026-05-03 21:59 | -22.86737 | 13.14236 | 39170 ft | 557 kts | 153° |
| 2026-05-03 22:00 | -22.93273 | 13.18629 | 39163 ft | 557 kts | 153° |
| 2026-05-03 22:00 | -23.00049 | 13.22582 | 39160 ft | 548 kts | 163° |
| 2026-05-03 22:01 | -23.07213 | 13.25334 | 39160 ft | 545 kts | 168° |
| 2026-05-03 22:01 | -23.14432 | 13.27895 | 39139 ft | 545 kts | 167° |
| 2026-05-03 22:02 | -23.21630 | 13.30534 | 39134 ft | 546 kts | 167° |
| 2026-05-03 22:02 | -23.28811 | 13.33227 | 39146 ft | 546 kts | 167° |
| 2026-05-03 22:03 | -23.35985 | 13.35932 | 39135 ft | 546 kts | 167° |
| 2026-05-03 22:03 | -23.43170 | 13.38643 | 39139 ft | 546 kts | 167° |
| 2026-05-03 22:04 | -23.50352 | 13.41353 | 39145 ft | 546 kts | 167° |
| 2026-05-03 22:04 | -23.57527 | 13.44063 | 39132 ft | 546 kts | 167° |
| 2026-05-03 22:05 | -23.64698 | 13.46775 | 39143 ft | 545 kts | 166° |
| 2026-05-03 22:05 | -23.71759 | 13.49448 | 39139 ft | 546 kts | 166° |
| 2026-05-03 22:06 | -23.78946 | 13.52172 | 39134 ft | 545 kts | 166° |
| 2026-05-03 22:06 | -23.86126 | 13.54897 | 39146 ft | 546 kts | 166° |
| 2026-05-03 22:07 | -23.93303 | 13.57624 | 39133 ft | 546 kts | 166° |
| 2026-05-03 22:07 | -24.00465 | 13.60348 | 39141 ft | 546 kts | 166° |
| 2026-05-03 22:08 | -24.07641 | 13.63081 | 39151 ft | 546 kts | 166° |
| 2026-05-03 22:08 | -24.14814 | 13.65816 | 39138 ft | 546 kts | 166° |
| 2026-05-03 22:09 | -24.21984 | 13.68553 | 39149 ft | 546 kts | 166° |
| 2026-05-03 22:10 | -24.32745 | 13.72667 | 39139 ft | 546 kts | 166° |
| 2026-05-03 22:10 | -24.39863 | 13.75393 | 39148 ft | 546 kts | 166° |
| 2026-05-03 22:11 | -24.47047 | 13.78147 | 39146 ft | 546 kts | 166° |
| 2026-05-03 22:11 | -24.54224 | 13.80902 | 39140 ft | 546 kts | 166° |
| 2026-05-03 22:12 | -24.61418 | 13.83666 | 39153 ft | 547 kts | 166° |
| 2026-05-03 22:12 | -24.68592 | 13.86426 | 39142 ft | 547 kts | 166° |
| 2026-05-03 22:13 | -24.75783 | 13.89196 | 39145 ft | 547 kts | 167° |
| 2026-05-03 22:13 | -24.82971 | 13.91968 | 39150 ft | 547 kts | 167° |
| 2026-05-03 22:14 | -24.90133 | 13.94734 | 39139 ft | 548 kts | 167° |
| 2026-05-03 22:14 | -24.97326 | 13.97474 | 39152 ft | 546 kts | 168° |
| 2026-05-03 22:15 | -25.04592 | 13.99962 | 39137 ft | 545 kts | 169° |
| 2026-05-03 22:15 | -25.11840 | 14.02298 | 39121 ft | 542 kts | 170° |
| 2026-05-03 22:16 | -25.19117 | 14.04592 | 39133 ft | 543 kts | 171° |
| 2026-05-03 22:16 | -25.26376 | 14.06880 | 39126 ft | 543 kts | 171° |
| 2026-05-03 22:17 | -25.33611 | 14.09169 | 39121 ft | 543 kts | 171° |
| 2026-05-03 22:17 | -25.40920 | 14.11486 | 39132 ft | 544 kts | 171° |
| 2026-05-03 22:18 | -25.48207 | 14.13799 | 39118 ft | 544 kts | 171° |
| 2026-05-03 22:18 | -25.55479 | 14.16110 | 39124 ft | 544 kts | 171° |
| 2026-05-03 22:19 | -25.62722 | 14.18415 | 39125 ft | 545 kts | 171° |
| 2026-05-03 22:19 | -25.70007 | 14.20736 | 39114 ft | 544 kts | 171° |
| 2026-05-03 22:20 | -25.77290 | 14.23059 | 39126 ft | 544 kts | 171° |
| 2026-05-03 22:20 | -25.84571 | 14.25385 | 39116 ft | 544 kts | 171° |
| 2026-05-03 22:21 | -25.91853 | 14.27714 | 39115 ft | 544 kts | 171° |
| 2026-05-03 22:21 | -25.99135 | 14.30046 | 39123 ft | 545 kts | 171° |
| 2026-05-03 22:22 | -26.06377 | 14.32369 | 39110 ft | 545 kts | 171° |
| 2026-05-03 22:22 | -26.13675 | 14.34712 | 39119 ft | 545 kts | 171° |
| 2026-05-03 22:23 | -26.20967 | 14.37056 | 39116 ft | 545 kts | 171° |
| 2026-05-03 22:23 | -26.28246 | 14.39399 | 39109 ft | 545 kts | 171° |
| 2026-05-03 22:24 | -26.35537 | 14.41750 | 39121 ft | 545 kts | 171° |
| 2026-05-03 22:24 | -26.42819 | 14.44100 | 39108 ft | 545 kts | 171° |
| 2026-05-03 22:25 | -26.50110 | 14.46457 | 39116 ft | 545 kts | 171° |
| 2026-05-03 22:25 | -26.57417 | 14.48820 | 39116 ft | 547 kts | 171° |
| 2026-05-03 22:26 | -26.64682 | 14.51175 | 39106 ft | 547 kts | 171° |
| 2026-05-03 22:26 | -26.71985 | 14.53545 | 39118 ft | 547 kts | 171° |
| 2026-05-03 22:27 | -26.79296 | 14.55920 | 39108 ft | 547 kts | 171° |
| 2026-05-03 22:27 | -26.86609 | 14.58300 | 39111 ft | 547 kts | 171° |
| 2026-05-03 22:28 | -26.93929 | 14.60684 | 39117 ft | 549 kts | 171° |
| 2026-05-03 22:28 | -27.01269 | 14.63078 | 39104 ft | 548 kts | 171° |
| 2026-05-03 22:29 | -27.08577 | 14.65467 | 39116 ft | 549 kts | 171° |
| 2026-05-03 22:29 | -27.15925 | 14.67872 | 39112 ft | 549 kts | 171° |
| 2026-05-03 22:30 | -27.23217 | 14.70260 | 39107 ft | 549 kts | 171° |
| 2026-05-03 22:30 | -27.30616 | 14.72684 | 39119 ft | 551 kts | 171° |
| 2026-05-03 22:31 | -27.37979 | 14.75104 | 39107 ft | 551 kts | 171° |
| 2026-05-03 22:31 | -27.45277 | 14.77506 | 39112 ft | 551 kts | 171° |
| 2026-05-03 22:32 | -27.52636 | 14.79933 | 39118 ft | 551 kts | 171° |
| 2026-05-03 22:32 | -27.60006 | 14.82362 | 39105 ft | 551 kts | 171° |
| 2026-05-03 22:33 | -27.67359 | 14.84789 | 39117 ft | 551 kts | 171° |
| 2026-05-03 22:33 | -27.74740 | 14.87230 | 39111 ft | 551 kts | 171° |
| 2026-05-03 22:34 | -27.82107 | 14.89671 | 39110 ft | 551 kts | 171° |
| 2026-05-03 22:34 | -27.89398 | 14.92089 | 39119 ft | 551 kts | 170° |
| 2026-05-03 22:35 | -27.96778 | 14.94540 | 39105 ft | 551 kts | 170° |
| 2026-05-03 22:35 | -28.04152 | 14.96992 | 39113 ft | 555 kts | 171° |
| 2026-05-03 22:36 | -28.11516 | 14.99836 | 39126 ft | 562 kts | 164° |
| 2026-05-03 22:36 | -28.18654 | 15.03554 | 39105 ft | 567 kts | 159° |
| 2026-05-03 22:37 | -28.25635 | 15.07759 | 39118 ft | 569 kts | 156° |
| 2026-05-03 22:37 | -28.32508 | 15.12112 | 39109 ft | 568 kts | 156° |
| 2026-05-03 22:38 | -28.39397 | 15.16488 | 39111 ft | 568 kts | 156° |
| 2026-05-03 22:38 | -28.46326 | 15.20871 | 39117 ft | 568 kts | 156° |
| 2026-05-03 22:39 | -28.53243 | 15.25243 | 39105 ft | 568 kts | 156° |
| 2026-05-03 22:39 | -28.60144 | 15.29611 | 39117 ft | 568 kts | 156° |
| 2026-05-03 22:40 | -28.67071 | 15.34002 | 39106 ft | 570 kts | 156° |
| 2026-05-03 22:40 | -28.73994 | 15.38400 | 39104 ft | 570 kts | 156° |
| 2026-05-03 22:41 | -28.80933 | 15.42815 | 39114 ft | 570 kts | 156° |
| 2026-05-03 22:41 | -28.87826 | 15.47206 | 39102 ft | 571 kts | 156° |
| 2026-05-03 22:42 | -28.94761 | 15.51631 | 39110 ft | 571 kts | 156° |
| 2026-05-03 22:42 | -29.01705 | 15.56069 | 39110 ft | 572 kts | 156° |
| 2026-05-03 22:43 | -29.07485 | 15.59766 | 39100 ft | 573 kts | 156° |
| 2026-05-03 22:43 | -29.14456 | 15.64235 | 39113 ft | 574 kts | 156° |
| 2026-05-03 22:44 | -29.21406 | 15.68697 | 39105 ft | 574 kts | 156° |
| 2026-05-03 22:44 | -29.28387 | 15.73185 | 39104 ft | 574 kts | 156° |
| 2026-05-03 22:45 | -29.35356 | 15.77672 | 39112 ft | 574 kts | 156° |
| 2026-05-03 22:45 | -29.42327 | 15.82168 | 39098 ft | 576 kts | 156° |
| 2026-05-03 22:46 | -29.49306 | 15.86676 | 39110 ft | 576 kts | 156° |
| 2026-05-03 22:46 | -29.56307 | 15.91206 | 39102 ft | 576 kts | 156° |
| 2026-05-03 22:47 | -29.63253 | 15.95707 | 39100 ft | 577 kts | 156° |
| 2026-05-03 22:47 | -29.70251 | 16.00251 | 39109 ft | 577 kts | 156° |
| 2026-05-03 22:48 | -29.77235 | 16.04791 | 39094 ft | 576 kts | 156° |
| 2026-05-03 22:48 | -29.84214 | 16.09335 | 39104 ft | 577 kts | 156° |
| 2026-05-03 22:49 | -29.91214 | 16.13900 | 39098 ft | 577 kts | 156° |
| 2026-05-03 22:49 | -29.98176 | 16.18450 | 39091 ft | 577 kts | 156° |
| 2026-05-03 22:50 | -30.05159 | 16.23019 | 39102 ft | 577 kts | 156° |
| 2026-05-03 22:50 | -30.12143 | 16.27595 | 39089 ft | 577 kts | 156° |
| 2026-05-03 22:51 | -30.19132 | 16.32183 | 39091 ft | 577 kts | 156° |
| 2026-05-03 22:51 | -30.26112 | 16.36776 | 39094 ft | 577 kts | 156° |
| 2026-05-03 22:52 | -30.33102 | 16.41379 | 39080 ft | 577 kts | 155° |
| 2026-05-03 22:52 | -30.40077 | 16.45980 | 39089 ft | 577 kts | 155° |
| 2026-05-03 22:53 | -30.47058 | 16.50592 | 39080 ft | 579 kts | 155° |
| 2026-05-03 22:53 | -30.54022 | 16.55202 | 39072 ft | 579 kts | 155° |
| 2026-05-03 22:54 | -30.61014 | 16.59842 | 39079 ft | 579 kts | 155° |
| 2026-05-03 22:54 | -30.68020 | 16.64496 | 39069 ft | 579 kts | 155° |
| 2026-05-03 22:55 | -30.75006 | 16.69142 | 39065 ft | 579 kts | 155° |
| 2026-05-03 22:55 | -30.82029 | 16.73821 | 39072 ft | 581 kts | 155° |
| 2026-05-03 22:56 | -30.89032 | 16.78496 | 39054 ft | 580 kts | 155° |
| 2026-05-03 22:56 | -30.96003 | 16.83159 | 39064 ft | 580 kts | 155° |
| 2026-05-03 22:57 | -31.02994 | 16.87842 | 39054 ft | 581 kts | 155° |
| 2026-05-03 22:57 | -31.10021 | 16.92556 | 39045 ft | 581 kts | 155° |
| 2026-05-03 22:58 | -31.17037 | 16.97271 | 39054 ft | 582 kts | 155° |
| 2026-05-03 22:58 | -31.24046 | 17.01989 | 39042 ft | 582 kts | 155° |
| 2026-05-03 22:59 | -31.31072 | 17.06730 | 39037 ft | 582 kts | 155° |
| 2026-05-03 22:59 | -31.38044 | 17.11440 | 39043 ft | 582 kts | 155° |
| 2026-05-03 23:00 | -31.45059 | 17.16190 | 39029 ft | 582 kts | 155° |
| 2026-05-03 23:00 | -31.52077 | 17.20948 | 39030 ft | 582 kts | 155° |
| 2026-05-03 23:01 | -31.59074 | 17.25701 | 39028 ft | 581 kts | 155° |
| 2026-05-03 23:01 | -31.66076 | 17.30466 | 39017 ft | 581 kts | 155° |
| 2026-05-03 23:02 | -31.73077 | 17.35236 | 39027 ft | 581 kts | 155° |
| 2026-05-03 23:02 | -31.80025 | 17.39980 | 39013 ft | 581 kts | 155° |
| 2026-05-03 23:03 | -31.87013 | 17.44760 | 39013 ft | 581 kts | 155° |
| 2026-05-03 23:03 | -31.94020 | 17.49561 | 39017 ft | 581 kts | 155° |
| 2026-05-03 23:04 | -32.01005 | 17.54357 | 39004 ft | 581 kts | 155° |
| 2026-05-03 23:04 | -32.08022 | 17.59180 | 39014 ft | 584 kts | 155° |
| 2026-05-03 23:05 | -32.15016 | 17.64001 | 39001 ft | 582 kts | 155° |
| 2026-05-03 23:05 | -32.22005 | 17.68825 | 39002 ft | 582 kts | 155° |
| 2026-05-03 23:06 | -32.28964 | 17.73636 | 39004 ft | 582 kts | 155° |
| 2026-05-03 23:06 | -32.35966 | 17.78488 | 38993 ft | 582 kts | 155° |
| 2026-05-03 23:07 | -32.42986 | 17.83354 | 39004 ft | 584 kts | 155° |
| 2026-05-03 23:07 | -32.50003 | 17.88232 | 38994 ft | 585 kts | 155° |
| 2026-05-03 23:08 | -32.57033 | 17.93128 | 38992 ft | 585 kts | 155° |
| 2026-05-03 23:08 | -32.64051 | 17.98025 | 39001 ft | 586 kts | 155° |
| 2026-05-03 23:09 | -32.71057 | 18.02922 | 38988 ft | 584 kts | 155° |
| 2026-05-03 23:09 | -32.78056 | 18.07824 | 38993 ft | 585 kts | 155° |
| 2026-05-03 23:10 | -32.85084 | 18.12754 | 38997 ft | 586 kts | 155° |
| 2026-05-03 23:10 | -32.92101 | 18.17686 | 38985 ft | 586 kts | 155° |
| 2026-05-03 23:11 | -32.99140 | 18.22640 | 38215 ft | 592 kts | 154° |
| 2026-05-03 23:11 | -33.02652 | 18.25116 | 37557 ft | 585 kts | 154° |
| 2026-05-03 23:11 | -33.06139 | 18.27605 | 36788 ft | 583 kts | 152° |
| 2026-05-03 23:11 | -33.09370 | 18.30534 | 36011 ft | 584 kts | 141° |
| 2026-05-03 23:12 | -33.12177 | 18.34033 | 35285 ft | 581 kts | 131° |
| 2026-05-03 23:12 | -33.14657 | 18.37836 | 34559 ft | 578 kts | 126° |
| 2026-05-03 23:12 | -33.16961 | 18.41741 | 33811 ft | 574 kts | 123° |
| 2026-05-03 23:12 | -33.19074 | 18.45757 | 33050 ft | 568 kts | 118° |
| 2026-05-03 23:13 | -33.20850 | 18.49874 | 32317 ft | 560 kts | 112° |
| 2026-05-03 23:13 | -33.22380 | 18.54171 | 31567 ft | 553 kts | 108° |
| 2026-05-03 23:13 | -33.23715 | 18.58459 | 30812 ft | 547 kts | 106° |
| 2026-05-03 23:13 | -33.24960 | 18.62728 | 30061 ft | 542 kts | 105° |
| 2026-05-03 23:14 | -33.26161 | 18.66918 | 29326 ft | 537 kts | 105° |
| 2026-05-03 23:14 | -33.27390 | 18.71171 | 28633 ft | 531 kts | 105° |
| 2026-05-03 23:14 | -33.28585 | 18.75260 | 27995 ft | 525 kts | 105° |
| 2026-05-03 23:14 | -33.29797 | 18.79367 | 27345 ft | 518 kts | 106° |
| 2026-05-03 23:15 | -33.30991 | 18.83399 | 26699 ft | 512 kts | 106° |
| 2026-05-03 23:15 | -33.32176 | 18.87391 | 26057 ft | 506 kts | 106° |
| 2026-05-03 23:15 | -33.33343 | 18.91328 | 25416 ft | 500 kts | 106° |
| 2026-05-03 23:15 | -33.34483 | 18.95183 | 24787 ft | 494 kts | 106° |
| 2026-05-03 23:16 | -33.35621 | 18.99036 | 24161 ft | 488 kts | 107° |
| 2026-05-03 23:16 | -33.36757 | 19.02831 | 23525 ft | 483 kts | 108° |
| 2026-05-03 23:16 | -33.38225 | 19.06376 | 22733 ft | 483 kts | 119° |
| 2026-05-03 23:16 | -33.40254 | 19.09618 | 21981 ft | 478 kts | 131° |
| 2026-05-03 23:17 | -33.41758 | 19.11394 | 21506 ft | 474 kts | 139° |
| 2026-05-03 23:17 | -33.43891 | 19.13320 | 20893 ft | 467 kts | 149° |
| 2026-05-03 23:17 | -33.46743 | 19.15094 | 20145 ft | 456 kts | 161° |
| 2026-05-03 23:17 | -33.49739 | 19.16157 | 19464 ft | 441 kts | 174° |
| 2026-05-03 23:18 | -33.52687 | 19.16226 | 18991 ft | 411 kts | 194° |
| 2026-05-03 23:18 | -33.55289 | 19.15251 | 18707 ft | 374 kts | 214° |
| 2026-05-03 23:18 | -33.57255 | 19.13469 | 18462 ft | 337 kts | 235° |
| 2026-05-03 23:18 | -33.58394 | 19.11202 | 18236 ft | 301 kts | 256° |
| 2026-05-03 23:19 | -33.58623 | 19.08863 | 17995 ft | 271 kts | 278° |
| 2026-05-03 23:19 | -33.58257 | 19.06745 | 17884 ft | 248 kts | 287° |
| 2026-05-03 23:19 | -33.57854 | 19.04819 | 17658 ft | 236 kts | 287° |
| 2026-05-03 23:19 | -33.57692 | 19.02858 | 17386 ft | 240 kts | 279° |
| 2026-05-03 23:20 | -33.57868 | 19.00816 | 17125 ft | 254 kts | 269° |
| 2026-05-03 23:20 | -33.58169 | 18.98804 | 16917 ft | 248 kts | 270° |
| 2026-05-03 23:20 | -33.58277 | 18.96678 | 16498 ft | 257 kts | 270° |
| 2026-05-03 23:20 | -33.59122 | 18.94709 | 16006 ft | 275 kts | 245° |
| 2026-05-03 23:21 | -33.60578 | 18.93195 | 15896 ft | 278 kts | 231° |
| 2026-05-03 23:21 | -33.62067 | 18.91698 | 15581 ft | 278 kts | 231° |
| 2026-05-03 23:21 | -33.63485 | 18.90166 | 15199 ft | 271 kts | 233° |
| 2026-05-03 23:21 | -33.64839 | 18.88596 | 14816 ft | 271 kts | 235° |
| 2026-05-03 23:22 | -33.67461 | 18.85388 | 14076 ft | 268 kts | 236° |
| 2026-05-03 23:22 | -33.68744 | 18.83774 | 13701 ft | 266 kts | 237° |
| 2026-05-03 23:22 | -33.70017 | 18.82160 | 13361 ft | 265 kts | 237° |
| 2026-05-03 23:23 | -33.71280 | 18.80552 | 13094 ft | 264 kts | 237° |
| 2026-05-03 23:23 | -33.72533 | 18.78951 | 12851 ft | 263 kts | 237° |
| 2026-05-03 23:23 | -33.73784 | 18.77352 | 12669 ft | 263 kts | 237° |
| 2026-05-03 23:23 | -33.75037 | 18.75743 | 12465 ft | 263 kts | 237° |
| 2026-05-03 23:24 | -33.76285 | 18.74139 | 12240 ft | 262 kts | 237° |
| 2026-05-03 23:24 | -33.77525 | 18.72545 | 12007 ft | 261 kts | 236° |
| 2026-05-03 23:24 | -33.78797 | 18.70986 | 11732 ft | 266 kts | 232° |
| 2026-05-03 23:24 | -33.80487 | 18.69988 | 11314 ft | 284 kts | 207° |
| 2026-05-03 23:25 | -33.82516 | 18.69976 | 11109 ft | 295 kts | 181° |
| 2026-05-03 23:25 | -33.84492 | 18.70539 | 10981 ft | 298 kts | 171° |
| 2026-05-03 23:25 | -33.86474 | 18.71203 | 10681 ft | 292 kts | 168° |
| 2026-05-03 23:25 | -33.88413 | 18.71858 | 10366 ft | 289 kts | 168° |
| 2026-05-03 23:26 | -33.90347 | 18.72494 | 10057 ft | 287 kts | 168° |
| 2026-05-03 23:26 | -33.92254 | 18.73114 | 9805 ft | 277 kts | 168° |
| 2026-05-03 23:26 | -33.94055 | 18.73700 | 9545 ft | 259 kts | 168° |
| 2026-05-03 23:26 | -33.95752 | 18.74246 | 9272 ft | 248 kts | 168° |
| 2026-05-03 23:27 | -33.97430 | 18.74780 | 9030 ft | 249 kts | 168° |
| 2026-05-03 23:27 | -33.99102 | 18.75312 | 8764 ft | 248 kts | 168° |
| 2026-05-03 23:27 | -34.00759 | 18.75842 | 8491 ft | 247 kts | 168° |
| 2026-05-03 23:27 | -34.02420 | 18.76376 | 8256 ft | 246 kts | 169° |
| 2026-05-03 23:28 | -34.04076 | 18.76905 | 8006 ft | 245 kts | 169° |
| 2026-05-03 23:28 | -34.05718 | 18.77428 | 7754 ft | 244 kts | 169° |
| 2026-05-03 23:28 | -34.07315 | 18.78038 | 7508 ft | 243 kts | 165° |
| 2026-05-03 23:28 | -34.08909 | 18.78687 | 7272 ft | 242 kts | 165° |
| 2026-05-03 23:29 | -34.10514 | 18.79324 | 7025 ft | 241 kts | 165° |
| 2026-05-03 23:29 | -34.12110 | 18.79892 | 6727 ft | 238 kts | 169° |
| 2026-05-03 23:29 | -34.13693 | 18.79700 | 6304 ft | 226 kts | 199° |
| 2026-05-03 23:29 | -34.14911 | 18.78605 | 6130 ft | 215 kts | 229° |
| 2026-05-03 23:30 | -34.15359 | 18.77571 | 5998 ft | 208 kts | 248° |
| 2026-05-03 23:30 | -34.15483 | 18.75904 | 5823 ft | 194 kts | 269° |
| 2026-05-03 23:30 | -34.15541 | 18.74296 | 5463 ft | 189 kts | 270° |
| 2026-05-03 23:30 | -34.15651 | 18.72729 | 5068 ft | 184 kts | 269° |
| 2026-05-03 23:31 | -34.15796 | 18.71221 | 4699 ft | 180 kts | 267° |
| 2026-05-03 23:31 | -34.15970 | 18.69737 | 4339 ft | 177 kts | 266° |
| 2026-05-03 23:31 | -34.16162 | 18.68268 | 3984 ft | 177 kts | 265° |
| 2026-05-03 23:31 | -34.16221 | 18.66801 | 3501 ft | 176 kts | 275° |
| 2026-05-03 23:32 | -34.15667 | 18.65538 | 3130 ft | 172 kts | 305° |
| 2026-05-03 23:32 | -34.14587 | 18.64914 | 3096 ft | 177 kts | 336° |
| 2026-05-03 23:32 | -34.13368 | 18.65160 | 3067 ft | 179 kts | 6° |
| 2026-05-03 23:32 | -34.12207 | 18.65413 | 3040 ft | 170 kts | 359° |
| 2026-05-03 23:33 | -34.11109 | 18.65025 | 2802 ft | 165 kts | 340° |
| 2026-05-03 23:33 | -34.10025 | 18.64577 | 2517 ft | 166 kts | 338° |
| 2026-05-03 23:33 | -34.08932 | 18.64158 | 2227 ft | 160 kts | 339° |
| 2026-05-03 23:33 | -33.97015 | 18.59832 | 2143 ft | 97 kts | 255° |
| 2026-05-03 23:44 | -33.97047 | 18.59836 | 164 ft | 0 kts | 255° |